Time;durP1;ratioP1;P1;durP2;ratioP2;P2;SDS_P1;SDS_P2;PMS_P1;PMS_P2;Temp;Humidity;BMP_temperature;BMP_pressure;BME280_temperature;BME280_humidity;BME280_pressure;Samples;Min_cycle;Max_cycle;Signal;HPM_P1;HPM_P2
2023/01/25 00:02:00;;;;;;;19.10;13.83;;;1.50;99.90;;;;;;5058028;28;20191;-79
2023/01/25 00:04:26;;;;;;;17.97;13.30;;;1.50;99.90;;;;;;5058182;28;20183;-79
2023/01/25 00:06:52;;;;;;;20.60;14.53;;;1.50;99.90;;;;;;5057942;28;20233;-79
2023/01/25 00:09:18;;;;;;;18.13;13.07;;;1.50;99.90;;;;;;5058062;28;20178;-79
2023/01/25 00:11:44;;;;;;;18.50;13.60;;;1.50;99.90;;;;;;5057796;28;20293;-79
2023/01/25 00:14:11;;;;;;;18.90;13.80;;;1.50;99.90;;;;;;5057891;28;20176;-79
2023/01/25 00:16:37;;;;;;;18.73;13.17;;;1.50;99.90;;;;;;5056782;28;20171;-79
2023/01/25 00:19:04;;;;;;;20.03;14.27;;;1.40;99.90;;;;;;5057915;28;20167;-79
2023/01/25 00:21:29;;;;;;;18.90;13.97;;;1.40;99.90;;;;;;5056245;28;20590;-79
2023/01/25 00:23:55;;;;;;;22.40;14.10;;;1.40;99.90;;;;;;5056845;28;20398;-79
2023/01/25 00:26:20;;;;;;;19.37;13.53;;;1.40;99.90;;;;;;5057927;28;20168;-80
2023/01/25 00:28:53;;;;;;;18.23;12.97;;;1.40;99.90;;;;;;5056573;28;20555;-79
2023/01/25 00:31:56;;;;;;;21.53;14.10;;;1.40;99.90;;;;;;5055658;28;20223;-79
2023/01/25 00:34:24;;;;;;;17.10;13.07;;;1.30;99.90;;;;;;5056679;28;20720;-79
2023/01/25 00:36:54;;;;;;;19.60;13.77;;;1.40;99.90;;;;;;5055334;28;20172;-79
2023/01/25 00:39:20;;;;;;;18.60;13.67;;;1.40;99.90;;;;;;5057821;28;20168;-79
2023/01/25 00:41:45;;;;;;;19.47;14.77;;;1.40;99.90;;;;;;5056385;28;20206;-79
2023/01/25 00:44:11;;;;;;;20.43;14.43;;;1.40;99.90;;;;;;5056968;28;20605;-79
2023/01/25 00:46:36;;;;;;;20.23;14.17;;;1.40;99.90;;;;;;5055529;28;20226;-79
2023/01/25 00:49:02;;;;;;;19.20;13.50;;;1.40;99.90;;;;;;5057167;28;20168;-79
2023/01/25 00:51:27;;;;;;;19.97;12.77;;;1.40;99.90;;;;;;5055842;28;20226;-79
2023/01/25 00:53:53;;;;;;;18.50;13.87;;;1.40;99.90;;;;;;5056728;28;20167;-79
2023/01/25 00:56:18;;;;;;;18.33;13.03;;;1.40;99.90;;;;;;5057490;28;20521;-79
2023/01/25 00:58:44;;;;;;;17.83;13.50;;;1.40;99.90;;;;;;5056962;28;20172;-79
2023/01/25 01:01:10;;;;;;;19.80;12.97;;;1.40;99.90;;;;;;5057048;28;20270;-79
2023/01/25 01:03:37;;;;;;;16.30;12.83;;;1.40;99.90;;;;;;5055834;28;20198;-79
2023/01/25 01:06:05;;;;;;;15.83;13.10;;;1.40;99.90;;;;;;5057344;28;20243;-79
2023/01/25 01:08:37;;;;;;;17.23;13.47;;;1.40;99.90;;;;;;5056023;28;20182;-79
2023/01/25 01:11:05;;;;;;;17.73;13.67;;;1.40;99.90;;;;;;5058254;28;20204;-79
2023/01/25 01:13:31;;;;;;;16.87;12.30;;;1.40;99.90;;;;;;5057657;28;20243;-78
2023/01/25 01:16:01;;;;;;;21.90;13.73;;;1.30;99.90;;;;;;5057674;28;20210;-79
2023/01/25 01:18:28;;;;;;;17.30;13.50;;;1.40;99.90;;;;;;5057365;28;20152;-78
2023/01/25 01:20:53;;;;;;;16.50;12.93;;;1.30;99.90;;;;;;5054833;28;20230;-79
2023/01/25 01:23:19;;;;;;;17.63;12.50;;;1.40;99.90;;;;;;5056132;28;20175;-79
2023/01/25 01:25:45;;;;;;;16.30;13.17;;;1.20;99.90;;;;;;5054788;28;20190;-78
2023/01/25 01:28:11;;;;;;;17.10;13.53;;;1.20;99.90;;;;;;5057083;28;20195;-79
2023/01/25 01:30:37;;;;;;;17.27;12.97;;;1.30;99.90;;;;;;5055382;28;20647;-79
2023/01/25 01:33:03;;;;;;;17.43;13.13;;;1.20;99.90;;;;;;5056206;28;20194;-79
2023/01/25 01:35:29;;;;;;;19.77;12.67;;;1.30;99.90;;;;;;5054854;28;20167;-79
2023/01/25 01:37:54;;;;;;;18.90;13.50;;;1.30;99.90;;;;;;5056248;28;20539;-79
2023/01/25 01:40:20;;;;;;;20.93;14.63;;;1.30;99.90;;;;;;5056583;28;20222;-78
2023/01/25 01:42:59;;;;;;;19.77;14.30;;;1.30;99.90;;;;;;5055406;28;20192;-78
2023/01/25 01:45:46;;;;;;;15.57;12.43;;;1.30;99.90;;;;;;5056215;28;20246;-79
2023/01/25 01:48:24;;;;;;;18.70;13.57;;;1.30;99.90;;;;;;5054429;28;20172;-79
2023/01/25 01:50:54;;;;;;;20.57;14.60;;;1.30;99.90;;;;;;5056118;28;20199;-78
2023/01/25 01:53:22;;;;;;;17.20;13.10;;;1.30;99.90;;;;;;5056373;28;20202;-79
2023/01/25 01:55:47;;;;;;;17.13;13.60;;;1.30;99.90;;;;;;5056357;28;20539;-79
2023/01/25 01:58:13;;;;;;;18.40;13.63;;;1.30;99.90;;;;;;5056913;28;20179;-78
2023/01/25 02:00:40;;;;;;;21.87;14.37;;;1.30;99.90;;;;;;5054596;28;20218;-78
2023/01/25 02:03:06;;;;;;;21.43;15.13;;;1.20;99.90;;;;;;5056456;28;20180;-79
2023/01/25 02:05:45;;;;;;;18.90;14.20;;;1.20;99.90;;;;;;5056322;28;20172;-79
2023/01/25 02:08:13;;;;;;;19.67;13.43;;;1.30;99.90;;;;;;5054803;28;20178;-79
2023/01/25 02:10:40;;;;;;;21.50;15.30;;;1.20;99.90;;;;;;5054643;28;20210;-78
2023/01/25 02:13:06;;;;;;;21.47;14.33;;;1.30;99.90;;;;;;5055807;28;20199;-79
2023/01/25 02:15:44;;;;;;;20.30;14.63;;;1.30;99.90;;;;;;5058344;28;20587;-79
2023/01/25 02:18:10;;;;;;;20.40;14.00;;;1.30;99.90;;;;;;5059728;28;20190;-79
2023/01/25 02:20:41;;;;;;;21.30;15.17;;;1.20;99.90;;;;;;5059212;28;20191;-81
2023/01/25 02:23:36;;;;;;;19.80;14.43;;;1.30;99.90;;;;;;5060037;28;20616;-79
2023/01/25 02:26:04;;;;;;;18.53;13.87;;;1.20;99.90;;;;;;5058687;28;20266;-80
2023/01/25 02:28:38;;;;;;;22.10;15.80;;;1.30;99.90;;;;;;5059175;28;20171;-79
2023/01/25 02:31:04;;;;;;;18.37;14.70;;;1.30;99.90;;;;;;5057506;28;20534;-79
2023/01/25 02:33:30;;;;;;;19.40;12.87;;;1.30;99.90;;;;;;5057443;28;20296;-79
2023/01/25 02:36:21;;;;;;;18.20;13.90;;;1.30;99.90;;;;;;5058937;28;20214;-79
2023/01/25 02:38:53;;;;;;;21.47;13.23;;;1.20;99.90;;;;;;5058875;28;20163;-79
2023/01/25 02:41:36;;;;;;;22.37;15.00;;;1.20;99.90;;;;;;5057668;28;20195;-79
2023/01/25 02:44:13;;;;;;;22.33;15.13;;;1.10;99.90;;;;;;5059078;28;20238;-79
2023/01/25 02:46:40;;;;;;;21.07;14.03;;;1.10;99.90;;;;;;5058826;28;20243;-78
2023/01/25 02:49:07;;;;;;;21.40;14.83;;;1.10;99.90;;;;;;5058826;28;20172;-79
2023/01/25 02:51:36;;;;;;;22.87;14.60;;;1.10;99.90;;;;;;5056960;28;20207;-79
2023/01/25 02:54:02;;;;;;;18.57;14.17;;;1.10;99.90;;;;;;5058481;28;20163;-80
2023/01/25 02:56:28;;;;;;;23.07;16.23;;;1.20;99.90;;;;;;5057469;28;20731;-79
2023/01/25 02:58:54;;;;;;;21.33;15.13;;;1.10;99.90;;;;;;5057329;28;20199;-79
2023/01/25 03:01:20;;;;;;;24.90;16.17;;;1.10;99.90;;;;;;5058066;28;20249;-80
2023/01/25 03:03:46;;;;;;;20.30;14.70;;;1.20;99.90;;;;;;5058791;28;20168;-79
2023/01/25 03:06:11;;;;;;;20.83;14.73;;;1.10;99.90;;;;;;5056921;28;20538;-79
2023/01/25 03:08:37;;;;;;;20.70;14.90;;;1.00;99.90;;;;;;5058226;28;20292;-79
2023/01/25 03:11:04;;;;;;;21.73;14.10;;;1.10;99.90;;;;;;5056425;28;20390;-79
2023/01/25 03:13:30;;;;;;;21.07;14.10;;;1.10;99.90;;;;;;5058411;28;20199;-79
2023/01/25 03:16:05;;;;;;;22.37;16.27;;;1.10;99.90;;;;;;5057143;28;20175;-79
2023/01/25 03:18:31;;;;;;;23.00;15.77;;;1.10;99.90;;;;;;5057013;28;20163;-79
2023/01/25 03:21:06;;;;;;;23.93;14.53;;;1.10;99.90;;;;;;5057876;28;20257;-79
2023/01/25 03:23:32;;;;;;;20.13;13.90;;;1.20;99.90;;;;;;5058318;28;20180;-79
2023/01/25 03:26:12;;;;;;;19.20;14.37;;;1.00;99.90;;;;;;5057932;28;20168;-79
2023/01/25 03:28:39;;;;;;;21.23;14.93;;;1.00;99.90;;;;;;5057772;28;20225;-79
2023/01/25 03:31:06;;;;;;;20.60;15.43;;;1.00;99.90;;;;;;5058153;28;20216;-79
2023/01/25 03:33:34;;;;;;;21.63;14.10;;;1.00;99.90;;;;;;5057079;28;20227;-79
2023/01/25 03:36:00;;;;;;;24.20;15.23;;;1.00;99.90;;;;;;5056503;28;20616;-79
2023/01/25 03:38:26;;;;;;;24.23;16.17;;;1.00;99.90;;;;;;5058391;28;20176;-79
2023/01/25 03:40:51;;;;;;;21.13;15.03;;;1.00;99.90;;;;;;5056114;28;20195;-78
2023/01/25 03:43:19;;;;;;;19.23;14.17;;;1.10;99.90;;;;;;5058075;28;20234;-79
2023/01/25 03:45:45;;;;;;;22.63;15.03;;;1.10;99.90;;;;;;5056173;28;20191;-77
2023/01/25 03:48:10;;;;;;;21.50;15.43;;;1.10;99.90;;;;;;5056383;28;20537;-79
2023/01/25 03:50:36;;;;;;;27.03;16.73;;;1.10;99.90;;;;;;5057337;28;20186;-78
2023/01/25 03:53:06;;;;;;;24.57;15.77;;;1.10;99.90;;;;;;5057170;28;20198;-78
2023/01/25 03:55:32;;;;;;;23.77;16.03;;;1.10;99.90;;;;;;5056904;28;20167;-78
2023/01/25 03:57:58;;;;;;;24.43;15.27;;;1.10;99.90;;;;;;5057301;28;20559;-78
2023/01/25 04:00:23;;;;;;;24.13;16.13;;;1.10;99.90;;;;;;5058428;28;20172;-78
2023/01/25 04:02:49;;;;;;;21.83;14.93;;;1.10;99.90;;;;;;5057097;28;20198;-78
2023/01/25 04:05:14;;;;;;;20.53;14.60;;;1.10;99.90;;;;;;5056984;28;20266;-79
2023/01/25 04:07:40;;;;;;;22.13;14.87;;;1.00;99.90;;;;;;5057435;28;20571;-78
2023/01/25 04:10:06;;;;;;;20.23;14.90;;;1.10;99.90;;;;;;5057556;28;20186;-79
2023/01/25 04:12:32;;;;;;;20.37;14.13;;;1.10;99.90;;;;;;5057311;28;20239;-78
2023/01/25 04:14:57;;;;;;;21.20;15.37;;;1.10;99.90;;;;;;5057449;28;20198;-78
2023/01/25 04:17:23;;;;;;;21.50;14.87;;;1.10;99.90;;;;;;5057312;28;20238;-79
2023/01/25 04:19:48;;;;;;;21.67;14.53;;;1.10;99.90;;;;;;5056017;28;20175;-78
2023/01/25 04:22:15;;;;;;;23.53;14.50;;;1.10;99.90;;;;;;5056765;28;20214;-77
2023/01/25 04:24:41;;;;;;;21.03;13.20;;;1.10;99.90;;;;;;5056458;28;20175;-79
2023/01/25 04:27:07;;;;;;;17.90;13.43;;;1.00;99.90;;;;;;5056330;28;20178;-79
2023/01/25 04:29:33;;;;;;;18.93;12.97;;;1.00;99.90;;;;;;5059100;28;20171;-78
2023/01/25 04:31:59;;;;;;;17.90;12.10;;;0.90;99.90;;;;;;5056276;28;20249;-79
2023/01/25 04:34:24;;;;;;;19.17;14.30;;;0.80;99.90;;;;;;5056821;28;20178;-79
2023/01/25 04:36:50;;;;;;;21.50;14.30;;;0.80;99.90;;;;;;5054766;28;20179;-79
2023/01/25 04:39:15;;;;;;;27.57;16.23;;;0.90;99.90;;;;;;5055413;28;20176;-79
2023/01/25 04:41:41;;;;;;;20.03;14.77;;;0.90;99.90;;;;;;5056660;28;20191;-79
2023/01/25 04:44:06;;;;;;;21.20;14.27;;;0.90;99.90;;;;;;5056588;28;20651;-78
2023/01/25 04:46:32;;;;;;;19.70;13.73;;;1.00;99.90;;;;;;5055044;28;20180;-79
2023/01/25 04:48:57;;;;;;;19.33;14.27;;;1.00;99.90;;;;;;5055630;28;20172;-79
2023/01/25 04:51:23;;;;;;;21.50;15.03;;;1.00;99.90;;;;;;5056554;28;20191;-79
2023/01/25 04:53:48;;;;;;;22.93;15.47;;;1.00;99.90;;;;;;5056078;28;20525;-79
2023/01/25 04:56:14;;;;;;;20.07;13.87;;;1.00;99.90;;;;;;5056670;28;20172;-79
2023/01/25 04:58:39;;;;;;;23.17;14.87;;;1.00;99.90;;;;;;5056607;28;20516;-79
2023/01/25 05:01:06;;;;;;;20.63;14.77;;;1.00;99.90;;;;;;5056233;28;20195;-79
2023/01/25 05:03:31;;;;;;;22.33;15.70;;;1.00;99.90;;;;;;5054834;28;20671;-78
2023/01/25 05:05:57;;;;;;;23.27;14.97;;;1.00;99.90;;;;;;5055934;28;20294;-79
2023/01/25 05:08:22;;;;;;;19.03;13.07;;;1.00;99.90;;;;;;5056039;28;20175;-79
2023/01/25 05:10:48;;;;;;;23.77;15.53;;;1.10;99.90;;;;;;5054937;28;20195;-79
2023/01/25 05:13:14;;;;;;;19.73;14.13;;;1.00;99.90;;;;;;5056396;28;20596;-79
2023/01/25 05:15:39;;;;;;;19.40;13.90;;;1.00;99.90;;;;;;5056679;28;20180;-79
2023/01/25 05:18:05;;;;;;;22.47;14.57;;;1.00;99.90;;;;;;5054751;28;20574;-80
2023/01/25 05:20:30;;;;;;;20.57;14.00;;;1.00;99.90;;;;;;5054942;28;20754;-79
2023/01/25 05:22:56;;;;;;;20.27;14.30;;;1.00;99.90;;;;;;5055232;28;20175;-79
2023/01/25 05:28:06;;;;;;;21.17;13.87;;;1.00;99.90;;;;;;5057011;28;20190;-80
2023/01/25 05:30:32;;;;;;;18.00;12.63;;;1.00;99.90;;;;;;5054252;28;20514;-82
2023/01/25 05:32:58;;;;;;;21.17;14.23;;;1.10;99.90;;;;;;5056109;28;20670;-79
2023/01/25 05:35:23;;;;;;;19.37;14.13;;;1.10;99.90;;;;;;5055789;28;20179;-79
2023/01/25 05:37:49;;;;;;;19.90;14.17;;;1.10;99.90;;;;;;5054805;28;20178;-78
2023/01/25 05:40:15;;;;;;;21.37;13.97;;;1.10;99.90;;;;;;5055864;28;20175;-80
2023/01/25 05:42:40;;;;;;;21.50;14.30;;;1.00;99.90;;;;;;5053789;28;20249;-79
2023/01/25 05:45:07;;;;;;;19.63;13.73;;;1.10;99.90;;;;;;5053569;28;20194;-78
2023/01/25 05:47:32;;;;;;;20.47;14.37;;;1.10;99.90;;;;;;5054202;28;20172;-79
2023/01/25 05:49:58;;;;;;;25.17;15.23;;;1.10;99.90;;;;;;5058145;28;20172;-79
2023/01/25 05:52:23;;;;;;;21.43;15.10;;;1.10;99.90;;;;;;5058085;28;20675;-79
2023/01/25 05:54:49;;;;;;;21.03;15.00;;;1.10;99.90;;;;;;5057932;28;20172;-79
2023/01/25 05:57:15;;;;;;;21.53;14.67;;;1.10;99.90;;;;;;5056343;28;20171;-79
2023/01/25 05:59:41;;;;;;;23.10;14.77;;;1.20;99.90;;;;;;5056391;28;20526;-79
2023/01/25 06:02:06;;;;;;;20.67;14.03;;;1.10;99.90;;;;;;5057716;28;20201;-79
2023/01/25 06:04:32;;;;;;;22.40;15.73;;;1.20;99.90;;;;;;5055293;28;20179;-80
2023/01/25 06:06:57;;;;;;;22.40;15.93;;;1.10;99.90;;;;;;5055772;28;20179;-81
2023/01/25 06:09:23;;;;;;;23.10;15.10;;;1.10;99.90;;;;;;5056509;28;20176;-78
2023/01/25 06:11:48;;;;;;;23.53;16.53;;;1.10;99.90;;;;;;5053944;28;20196;-79
2023/01/25 06:14:14;;;;;;;27.57;16.70;;;1.10;99.90;;;;;;5055657;28;20190;-79
2023/01/25 06:16:40;;;;;;;25.87;17.70;;;1.10;99.90;;;;;;5057419;28;20171;-79
2023/01/25 06:19:06;;;;;;;27.23;18.07;;;1.10;99.90;;;;;;5058328;28;20171;-80
2023/01/25 06:21:36;;;;;;;24.07;16.07;;;1.10;99.90;;;;;;5056554;28;20579;-79
2023/01/25 06:24:03;;;;;;;23.50;16.17;;;1.10;99.90;;;;;;5056532;28;20182;-80
2023/01/25 06:26:28;;;;;;;26.80;17.27;;;1.10;99.90;;;;;;5058225;28;20178;-80
2023/01/25 06:28:54;;;;;;;25.90;16.13;;;1.00;99.90;;;;;;5057030;28;20167;-80
2023/01/25 06:31:20;;;;;;;28.17;18.33;;;1.00;99.90;;;;;;5058467;28;20238;-80
2023/01/25 06:33:50;;;;;;;28.10;16.87;;;1.00;99.90;;;;;;5057402;28;20172;-80
2023/01/25 06:36:17;;;;;;;25.37;17.40;;;1.10;99.90;;;;;;5056772;28;20183;-79
2023/01/25 06:38:46;;;;;;;23.17;16.03;;;1.00;99.90;;;;;;5058156;28;20168;-80
2023/01/25 06:41:12;;;;;;;22.57;16.10;;;1.00;99.90;;;;;;5056630;28;20188;-80
2023/01/25 06:43:38;;;;;;;27.37;18.10;;;1.00;99.90;;;;;;5058002;28;20170;-80
2023/01/25 06:46:05;;;;;;;26.50;17.90;;;1.00;99.90;;;;;;5058258;28;20258;-80
2023/01/25 06:48:32;;;;;;;28.13;18.37;;;1.00;99.90;;;;;;5056605;28;20549;-80
2023/01/25 06:51:01;;;;;;;26.63;17.67;;;1.00;99.90;;;;;;5056399;28;20717;-79
2023/01/25 06:53:28;;;;;;;27.60;17.17;;;1.00;99.90;;;;;;5056538;28;20746;-79
2023/01/25 06:56:09;;;;;;;27.77;18.57;;;1.10;99.90;;;;;;5056637;28;20207;-79
2023/01/25 06:58:34;;;;;;;29.77;19.70;;;1.10;99.90;;;;;;5055222;28;20250;-79
2023/01/25 07:01:05;;;;;;;29.20;20.00;;;1.00;99.90;;;;;;5055705;28;20230;-79
2023/01/25 07:03:31;;;;;;;31.47;20.27;;;0.90;99.90;;;;;;5055379;28;20327;-79
2023/01/25 07:05:58;;;;;;;31.57;19.43;;;0.90;99.90;;;;;;5054922;28;20185;-79
2023/01/25 07:08:24;;;;;;;29.40;19.43;;;0.90;99.90;;;;;;5057453;28;20182;-80
2023/01/25 07:10:54;;;;;;;30.87;20.10;;;0.90;99.90;;;;;;5057913;28;20195;-81
2023/01/25 07:13:20;;;;;;;28.90;19.87;;;1.00;99.90;;;;;;5057417;28;20191;-81
2023/01/25 07:15:52;;;;;;;30.60;20.10;;;1.00;99.90;;;;;;5057256;28;20234;-81
2023/01/25 07:18:17;;;;;;;31.10;19.87;;;1.00;99.90;;;;;;5058012;28;20156;-81
2023/01/25 07:20:42;;;;;;;33.70;21.07;;;1.00;99.90;;;;;;5058658;28;20186;-81
2023/01/25 07:23:08;;;;;;;31.70;20.43;;;1.00;99.90;;;;;;5057716;28;20226;-81
2023/01/25 07:25:33;;;;;;;33.87;22.17;;;1.00;99.90;;;;;;5059379;28;20184;-81
2023/01/25 07:27:59;;;;;;;33.40;21.33;;;1.00;99.90;;;;;;5059634;28;20198;-80
2023/01/25 07:30:24;;;;;;;35.67;21.87;;;1.10;99.90;;;;;;5059099;28;20180;-81
2023/01/25 07:32:50;;;;;;;36.33;22.50;;;1.10;99.90;;;;;;5058996;28;20231;-80
2023/01/25 07:35:15;;;;;;;36.07;24.17;;;1.10;99.90;;;;;;5059536;28;20180;-80
2023/01/25 07:37:41;;;;;;;36.03;23.50;;;1.10;99.90;;;;;;5062806;28;20171;-81
2023/01/25 07:40:07;;;;;;;36.77;24.07;;;1.10;99.90;;;;;;5064401;28;20178;-80
2023/01/25 07:42:32;;;;;;;37.60;24.17;;;1.10;99.90;;;;;;5068176;28;20191;-79
2023/01/25 07:44:58;;;;;;;32.27;21.50;;;1.20;99.90;;;;;;5064023;28;20226;-80
2023/01/25 07:47:24;;;;;;;36.40;23.13;;;1.10;99.90;;;;;;5057694;28;20194;-81
2023/01/25 07:49:49;;;;;;;35.70;22.90;;;1.20;99.90;;;;;;5057393;28;20175;-81
2023/01/25 07:52:14;;;;;;;35.53;22.73;;;1.10;99.90;;;;;;5059309;28;20199;-81
2023/01/25 07:54:40;;;;;;;29.67;20.63;;;1.20;99.90;;;;;;5059855;28;20172;-82
2023/01/25 07:57:05;;;;;;;34.67;22.43;;;1.20;99.90;;;;;;5060323;28;20176;-82
2023/01/25 07:59:31;;;;;;;35.23;23.20;;;1.20;99.90;;;;;;5059499;28;20651;-82
2023/01/25 08:01:56;;;;;;;38.87;23.63;;;1.10;99.90;;;;;;5058911;28;20195;-83
2023/01/25 08:04:22;;;;;;;39.27;23.97;;;1.10;99.90;;;;;;5059307;28;20183;-83
2023/01/25 08:06:48;;;;;;;35.63;22.73;;;1.10;99.90;;;;;;5060187;28;20327;-82
2023/01/25 08:09:18;;;;;;;40.37;25.50;;;1.00;99.90;;;;;;5059065;28;20217;-83
2023/01/25 08:11:44;;;;;;;40.30;23.40;;;0.90;99.90;;;;;;5058917;28;20207;-83
2023/01/25 08:14:10;;;;;;;44.40;25.37;;;0.90;99.90;;;;;;5059199;28;20221;-82
2023/01/25 08:16:35;;;;;;;35.90;23.23;;;0.90;99.90;;;;;;5059253;28;20202;-82
2023/01/25 08:19:02;;;;;;;40.27;25.67;;;1.00;99.90;;;;;;5058559;28;20176;-82
2023/01/25 08:21:31;;;;;;;39.17;24.87;;;0.90;99.90;;;;;;5058407;28;20207;-82
2023/01/25 08:24:02;;;;;;;41.93;25.50;;;1.00;99.90;;;;;;5058753;28;20513;-82
2023/01/25 08:26:28;;;;;;;38.90;24.00;;;0.90;99.90;;;;;;5059081;28;20167;-82
2023/01/25 08:28:54;;;;;;;42.87;25.50;;;0.90;99.90;;;;;;5056963;28;20167;-82
2023/01/25 08:31:25;;;;;;;45.03;27.40;;;0.90;99.90;;;;;;5058862;28;20674;-82
2023/01/25 08:33:51;;;;;;;39.67;24.57;;;0.90;99.90;;;;;;5056883;28;20187;-82
2023/01/25 08:36:18;;;;;;;37.33;24.40;;;0.90;99.90;;;;;;5058555;28;20175;-82
2023/01/25 08:38:45;;;;;;;42.73;25.07;;;1.00;99.90;;;;;;5059019;28;20167;-82
2023/01/25 08:41:16;;;;;;;40.47;25.33;;;1.00;99.90;;;;;;5057202;28;20195;-82
2023/01/25 08:43:43;;;;;;;41.47;25.10;;;1.00;99.90;;;;;;5057068;28;20163;-83
2023/01/25 08:46:09;;;;;;;45.40;27.23;;;0.90;99.90;;;;;;5056698;28;20252;-82
2023/01/25 08:48:35;;;;;;;41.07;25.43;;;0.90;99.90;;;;;;5058173;28;20175;-83
2023/01/25 08:51:01;;;;;;;41.97;25.63;;;1.00;99.90;;;;;;5057940;28;20191;-84
2023/01/25 08:53:28;;;;;;;42.43;25.77;;;1.00;99.90;;;;;;5057776;28;20196;-83
2023/01/25 08:55:53;;;;;;;44.23;25.40;;;1.00;99.90;;;;;;5057579;28;20176;-82
2023/01/25 08:58:21;;;;;;;43.93;26.57;;;1.00;99.90;;;;;;5057472;28;20539;-83
2023/01/25 09:00:47;;;;;;;47.00;27.77;;;1.00;99.90;;;;;;5058442;28;20191;-82
2023/01/25 09:03:14;;;;;;;47.33;28.63;;;1.00;99.90;;;;;;5057515;28;20262;-83
2023/01/25 09:05:40;;;;;;;43.97;27.63;;;1.10;99.90;;;;;;5057177;28;20621;-82
2023/01/25 09:08:08;;;;;;;43.50;26.13;;;1.10;99.90;;;;;;5056171;28;20195;-83
2023/01/25 09:10:34;;;;;;;46.87;26.87;;;1.10;99.90;;;;;;5057625;28;20179;-83
2023/01/25 09:13:00;;;;;;;42.73;26.20;;;1.10;99.90;;;;;;5056652;28;20206;-83
2023/01/25 09:15:26;;;;;;;44.47;26.77;;;1.20;99.90;;;;;;5058714;28;20171;-83
2023/01/25 09:17:55;;;;;;;42.63;26.70;;;1.20;99.90;;;;;;5057130;28;20183;-82
2023/01/25 09:20:22;;;;;;;45.47;27.93;;;1.20;99.90;;;;;;5056676;28;20183;-82
2023/01/25 09:22:48;;;;;;;43.40;27.23;;;1.20;99.90;;;;;;5058294;28;20569;-83
2023/01/25 09:25:13;;;;;;;44.30;28.57;;;1.20;99.90;;;;;;5057383;28;20185;-83
2023/01/25 09:27:40;;;;;;;46.90;27.70;;;1.20;99.90;;;;;;5059159;28;20253;-83
2023/01/25 09:30:07;;;;;;;46.80;26.87;;;1.20;99.90;;;;;;5059070;28;20179;-83
2023/01/25 09:32:33;;;;;;;45.60;26.73;;;1.20;99.90;;;;;;5056782;28;20203;-83
2023/01/25 09:34:58;;;;;;;45.07;26.50;;;1.20;99.90;;;;;;5057072;28;20643;-82
2023/01/25 09:37:24;;;;;;;43.87;26.37;;;1.20;99.90;;;;;;5058713;28;20179;-82
2023/01/25 09:39:49;;;;;;;44.83;27.17;;;1.20;99.90;;;;;;5057647;28;20164;-82
2023/01/25 09:42:15;;;;;;;47.83;27.83;;;1.20;99.90;;;;;;5056197;28;20298;-83
2023/01/25 09:44:55;;;;;;;42.03;25.07;;;1.30;99.90;;;;;;5057422;28;20168;-82
2023/01/25 09:47:37;;;;;;;44.37;25.33;;;1.30;99.90;;;;;;5057953;28;20168;-83
2023/01/25 09:50:11;;;;;;;46.47;25.77;;;1.20;99.90;;;;;;5057658;28;20696;-82
2023/01/25 09:53:06;;;;;;;41.97;25.83;;;1.30;99.90;;;;;;5057130;28;20213;-82
2023/01/25 09:55:32;;;;;;;45.03;24.37;;;1.30;99.90;;;;;;5058332;28;20167;-82
2023/01/25 09:58:01;;;;;;;42.60;25.00;;;1.30;99.90;;;;;;5058862;28;20172;-82
2023/01/25 10:00:39;;;;;;;43.20;25.23;;;1.30;99.90;;;;;;5060424;28;20168;-83
2023/01/25 10:03:33;;;;;;;39.97;23.60;;;1.30;99.90;;;;;;5058802;28;20178;-83
2023/01/25 10:06:01;;;;;;;36.37;21.03;;;1.30;99.90;;;;;;5060082;28;20674;-82
2023/01/25 10:08:51;;;;;;;40.77;22.13;;;1.30;99.90;;;;;;5057772;28;20175;-82
2023/01/25 10:11:32;;;;;;;40.03;22.87;;;1.30;99.90;;;;;;5060186;28;20226;-83
2023/01/25 10:13:59;;;;;;;41.83;24.70;;;1.30;99.90;;;;;;5061736;28;20187;-83
2023/01/25 10:16:47;;;;;;;35.07;21.50;;;1.20;99.90;;;;;;5061130;28;20262;-83
2023/01/25 10:19:36;;;;;;;36.60;22.50;;;1.10;99.90;;;;;;5060623;28;20160;-83
2023/01/25 10:22:02;;;;;;;36.53;22.13;;;1.00;99.90;;;;;;5060002;28;20687;-83
2023/01/25 10:25:10;;;;;;;36.30;22.03;;;1.10;99.90;;;;;;5059182;28;20175;-83
2023/01/25 10:28:02;;;;;;;41.57;22.73;;;1.00;99.90;;;;;;5061577;28;20195;-83
2023/01/25 10:30:44;;;;;;;42.93;24.43;;;0.90;99.90;;;;;;5020632;28;20191;-82
2023/01/25 10:33:14;;;;;;;36.93;20.60;;;0.90;99.90;;;;;;5058824;28;20318;-83
2023/01/25 10:35:44;;;;;;;41.17;23.33;;;0.90;99.90;;;;;;5060421;28;20171;-83
2023/01/25 10:38:34;;;;;;;39.73;23.23;;;0.80;99.90;;;;;;5063866;28;20220;-84
2023/01/25 10:41:06;;;;;;;40.70;23.63;;;0.90;99.90;;;;;;5066475;28;20679;-83
2023/01/25 10:43:31;;;;;;;37.57;22.50;;;0.80;99.90;;;;;;5065217;28;20171;-83
2023/01/25 10:45:57;;;;;;;40.20;22.60;;;0.80;99.90;;;;;;5065110;28;20205;-83
2023/01/25 10:48:27;;;;;;;40.60;23.27;;;0.80;99.90;;;;;;5066135;28;20175;-83
2023/01/25 10:50:55;;;;;;;41.33;22.97;;;0.90;99.90;;;;;;5067355;28;20274;-83
2023/01/25 10:53:43;;;;;;;39.60;22.97;;;0.90;99.90;;;;;;5066858;28;20194;-83
2023/01/25 10:56:09;;;;;;;39.67;22.93;;;0.90;99.90;;;;;;5066631;28;20214;-83
2023/01/25 10:58:45;;;;;;;38.70;23.50;;;0.90;99.90;;;;;;5073768;28;20235;-83
2023/01/25 11:01:24;;;;;;;40.30;23.23;;;1.00;99.90;;;;;;5073625;28;20179;-83
2023/01/25 11:03:49;;;;;;;42.20;23.37;;;1.00;99.90;;;;;;5065667;28;20163;-83
2023/01/25 11:06:34;;;;;;;41.90;23.57;;;1.00;99.90;;;;;;5065324;28;20183;-83
2023/01/25 11:09:21;;;;;;;39.80;24.07;;;1.00;99.90;;;;;;5061836;28;20218;-83
2023/01/25 11:12:01;;;;;;;45.17;23.63;;;1.00;99.90;;;;;;5063002;28;20203;-83
2023/01/25 11:14:29;;;;;;;42.83;24.33;;;1.10;99.90;;;;;;5060948;28;20674;-84
2023/01/25 11:16:57;;;;;;;43.20;24.90;;;1.10;99.90;;;;;;5063135;28;20175;-83
2023/01/25 11:19:35;;;;;;;39.37;23.67;;;1.00;99.90;;;;;;5060592;28;20717;-83
2023/01/25 11:22:05;;;;;;;42.47;25.23;;;1.10;99.90;;;;;;5062044;28;20588;-84
2023/01/25 11:24:35;;;;;;;44.03;26.27;;;1.00;99.90;;;;;;5060346;28;20568;-83
2023/01/25 11:27:20;;;;;;;43.80;25.37;;;1.00;99.90;;;;;;5061012;28;20198;-84
2023/01/25 11:30:14;;;;;;;48.63;27.87;;;1.00;99.90;;;;;;5062379;28;20191;-83
2023/01/25 11:32:40;;;;;;;42.57;26.60;;;1.00;99.90;;;;;;5063432;28;20233;-83
2023/01/25 11:35:13;;;;;;;44.10;26.87;;;1.10;99.90;;;;;;5063279;28;20176;-83
2023/01/25 11:37:58;;;;;;;46.93;27.23;;;1.10;99.90;;;;;;5064767;28;20179;-84
2023/01/25 11:40:45;;;;;;;43.23;24.63;;;1.10;99.90;;;;;;5063770;28;20191;-83
2023/01/25 11:43:37;;;;;;;42.47;25.13;;;1.10;99.90;;;;;;5063277;28;20230;-83
2023/01/25 11:46:28;;;;;;;44.70;25.17;;;1.10;99.90;;;;;;5064022;28;20182;-83
2023/01/25 11:48:59;;;;;;;43.63;23.87;;;1.20;99.90;;;;;;5061903;28;20168;-83
2023/01/25 11:51:56;;;;;;;41.93;24.53;;;1.10;99.90;;;;;;5062178;28;20198;-83
2023/01/25 11:54:47;;;;;;;41.53;24.13;;;1.10;99.90;;;;;;5062779;28;20163;-83
2023/01/25 11:57:38;;;;;;;43.37;24.50;;;1.10;99.90;;;;;;5049303;28;20184;-83
2023/01/25 12:00:21;;;;;;;44.20;23.57;;;1.10;99.90;;;;;;5060174;28;20156;-82
2023/01/25 12:02:59;;;;;;;42.83;24.43;;;1.00;99.90;;;;;;5059678;28;20252;-83
2023/01/25 12:06:02;;;;;;;42.10;24.10;;;1.00;99.90;;;;;;5060498;28;20186;-83
2023/01/25 12:08:46;;;;;;;38.77;21.87;;;1.00;99.90;;;;;;5058323;28;20167;-83
2023/01/25 12:11:34;;;;;;;37.50;20.50;;;1.00;99.90;;;;;;5058603;28;20226;-83
2023/01/25 12:14:35;;;;;;;36.30;20.80;;;1.00;99.90;;;;;;5059209;28;20230;-83
2023/01/25 12:17:01;;;;;;;37.43;21.20;;;1.00;99.90;;;;;;5061718;28;20228;-83
2023/01/25 12:19:49;;;;;;;36.03;20.17;;;1.00;99.90;;;;;;5062115;28;20175;-83
2023/01/25 12:22:44;;;;;;;36.30;20.43;;;0.90;99.90;;;;;;5061750;28;20215;-83
2023/01/25 12:25:43;;;;;;;38.40;20.97;;;0.90;99.90;;;;;;5053457;28;20212;-83
2023/01/25 12:28:10;;;;;;;40.40;19.80;;;1.00;99.90;;;;;;5059708;28;20163;-84
2023/01/25 12:30:55;;;;;;;40.53;22.57;;;1.00;99.90;;;;;;5060649;28;20176;-84
2023/01/25 12:33:35;;;;;;;35.23;21.33;;;1.00;99.90;;;;;;5058754;28;20195;-83
2023/01/25 12:36:13;;;;;;;42.77;23.13;;;1.10;99.90;;;;;;5061358;28;20151;-83
2023/01/25 12:39:09;;;;;;;39.73;21.57;;;1.10;99.90;;;;;;5060040;28;20163;-84
2023/01/25 12:41:40;;;;;;;40.60;24.30;;;1.20;99.90;;;;;;5059790;28;20187;-83
2023/01/25 12:44:13;;;;;;;42.57;24.27;;;1.10;99.90;;;;;;5061048;28;20171;-84
2023/01/25 12:46:47;;;;;;;38.73;22.40;;;1.10;99.90;;;;;;5059089;28;20232;-84
2023/01/25 12:49:34;;;;;;;42.33;23.43;;;1.00;99.90;;;;;;5060387;28;20155;-83
2023/01/25 12:52:06;;;;;;;38.37;21.23;;;1.00;99.90;;;;;;5060991;28;20203;-83
2023/01/25 12:54:36;;;;;;;43.80;21.43;;;1.00;99.90;;;;;;5059855;28;20167;-83